sensor_id;sensor_type;location;lat;lon;timestamp;P1;durP1;ratioP1;P2;durP2;ratioP2
74912;SDS011;63878;55.624;37.304;2023-02-01T00:03:00;15.00;;;6.20;;
74912;SDS011;63878;55.624;37.304;2023-02-01T00:13:00;15.32;;;7.18;;
74912;SDS011;63878;55.624;37.304;2023-02-01T00:23:01;12.27;;;6.30;;
74912;SDS011;63878;55.624;37.304;2023-02-01T00:33:01;14.75;;;6.70;;
74912;SDS011;63878;55.624;37.304;2023-02-01T00:43:02;12.50;;;5.55;;
74912;SDS011;63878;55.624;37.304;2023-02-01T00:53:02;11.27;;;6.25;;
74912;SDS011;63878;55.624;37.304;2023-02-01T01:03:03;14.30;;;6.57;;
74912;SDS011;63878;55.624;37.304;2023-02-01T01:13:04;14.18;;;5.78;;
74912;SDS011;63878;55.624;37.304;2023-02-01T01:23:04;14.35;;;6.20;;
74912;SDS011;63878;55.624;37.304;2023-02-01T01:33:06;9.68;;;5.07;;
74912;SDS011;63878;55.624;37.304;2023-02-01T01:43:12;15.45;;;5.88;;
74912;SDS011;63878;55.624;37.304;2023-02-01T01:53:24;12.38;;;5.80;;
74912;SDS011;63878;55.624;37.304;2023-02-01T02:13:40;12.75;;;6.47;;
74912;SDS011;63878;55.624;37.304;2023-02-01T02:43:49;12.90;;;6.20;;
74912;SDS011;63878;55.624;37.304;2023-02-01T02:54:06;14.05;;;6.47;;
74912;SDS011;63878;55.624;37.304;2023-02-01T03:04:11;15.20;;;5.88;;
74912;SDS011;63878;55.624;37.304;2023-02-01T03:14:12;13.18;;;6.60;;
74912;SDS011;63878;55.624;37.304;2023-02-01T03:24:17;10.68;;;5.18;;
74912;SDS011;63878;55.624;37.304;2023-02-01T03:34:23;14.10;;;5.72;;
74912;SDS011;63878;55.624;37.304;2023-02-01T03:44:34;12.80;;;6.00;;
74912;SDS011;63878;55.624;37.304;2023-02-01T03:54:42;14.63;;;7.03;;
74912;SDS011;63878;55.624;37.304;2023-02-01T04:04:43;13.57;;;7.32;;
74912;SDS011;63878;55.624;37.304;2023-02-01T04:14:44;15.60;;;8.00;;
74912;SDS011;63878;55.624;37.304;2023-02-01T04:24:44;18.40;;;7.30;;
74912;SDS011;63878;55.624;37.304;2023-02-01T04:34:45;19.98;;;7.57;;
74912;SDS011;63878;55.624;37.304;2023-02-01T04:44:45;21.25;;;8.82;;
74912;SDS011;63878;55.624;37.304;2023-02-01T04:54:46;20.17;;;8.10;;
74912;SDS011;63878;55.624;37.304;2023-02-01T05:04:46;18.75;;;8.35;;
74912;SDS011;63878;55.624;37.304;2023-02-01T05:14:47;22.05;;;9.38;;
74912;SDS011;63878;55.624;37.304;2023-02-01T05:24:48;22.63;;;8.38;;
74912;SDS011;63878;55.624;37.304;2023-02-01T05:34:48;24.60;;;9.80;;
74912;SDS011;63878;55.624;37.304;2023-02-01T05:44:49;17.35;;;7.30;;
74912;SDS011;63878;55.624;37.304;2023-02-01T05:54:49;18.48;;;7.47;;
74912;SDS011;63878;55.624;37.304;2023-02-01T06:04:50;21.08;;;9.55;;
74912;SDS011;63878;55.624;37.304;2023-02-01T06:14:51;27.25;;;10.05;;
74912;SDS011;63878;55.624;37.304;2023-02-01T06:24:51;26.08;;;9.80;;
74912;SDS011;63878;55.624;37.304;2023-02-01T06:34:52;29.33;;;11.18;;
74912;SDS011;63878;55.624;37.304;2023-02-01T06:44:52;21.27;;;9.27;;
74912;SDS011;63878;55.624;37.304;2023-02-01T06:54:53;25.50;;;10.85;;
74912;SDS011;63878;55.624;37.304;2023-02-01T07:04:53;22.67;;;9.15;;
74912;SDS011;63878;55.624;37.304;2023-02-01T07:14:54;24.05;;;9.45;;
74912;SDS011;63878;55.624;37.304;2023-02-01T07:24:54;28.40;;;11.88;;
74912;SDS011;63878;55.624;37.304;2023-02-01T07:34:55;23.13;;;8.93;;
74912;SDS011;63878;55.624;37.304;2023-02-01T07:44:56;22.10;;;9.80;;
74912;SDS011;63878;55.624;37.304;2023-02-01T07:54:56;22.17;;;9.70;;
74912;SDS011;63878;55.624;37.304;2023-02-01T08:04:57;20.08;;;9.73;;
74912;SDS011;63878;55.624;37.304;2023-02-01T08:14:57;27.27;;;10.82;;
74912;SDS011;63878;55.624;37.304;2023-02-01T08:24:58;24.77;;;10.27;;
74912;SDS011;63878;55.624;37.304;2023-02-01T08:34:58;18.73;;;9.35;;
74912;SDS011;63878;55.624;37.304;2023-02-01T08:44:58;19.70;;;8.40;;
74912;SDS011;63878;55.624;37.304;2023-02-01T08:54:59;19.02;;;9.15;;
74912;SDS011;63878;55.624;37.304;2023-02-01T09:04:59;21.50;;;10.02;;
74912;SDS011;63878;55.624;37.304;2023-02-01T09:15:00;24.05;;;11.63;;
74912;SDS011;63878;55.624;37.304;2023-02-01T09:25:01;26.75;;;10.45;;
74912;SDS011;63878;55.624;37.304;2023-02-01T09:35:01;22.55;;;10.23;;
74912;SDS011;63878;55.624;37.304;2023-02-01T09:55:30;22.75;;;10.40;;
74912;SDS011;63878;55.624;37.304;2023-02-01T10:26:54;20.25;;;9.27;;
74912;SDS011;63878;55.624;37.304;2023-02-01T10:47:23;16.30;;;7.82;;
74912;SDS011;63878;55.624;37.304;2023-02-01T10:57:25;18.93;;;9.20;;
74912;SDS011;63878;55.624;37.304;2023-02-01T11:07:26;20.17;;;9.45;;
74912;SDS011;63878;55.624;37.304;2023-02-01T11:17:35;21.23;;;10.55;;
74912;SDS011;63878;55.624;37.304;2023-02-01T11:27:42;20.48;;;10.80;;
74912;SDS011;63878;55.624;37.304;2023-02-01T11:37:43;19.40;;;8.50;;
74912;SDS011;63878;55.624;37.304;2023-02-01T11:47:44;25.10;;;12.38;;
74912;SDS011;63878;55.624;37.304;2023-02-01T12:59:51;18.98;;;8.48;;
74912;SDS011;63878;55.624;37.304;2023-02-01T13:30:01;14.27;;;7.70;;
74912;SDS011;63878;55.624;37.304;2023-02-01T13:50:34;15.57;;;6.60;;
74912;SDS011;63878;55.624;37.304;2023-02-01T14:00:38;15.18;;;8.00;;
74912;SDS011;63878;55.624;37.304;2023-02-01T14:10:58;14.07;;;6.43;;
74912;SDS011;63878;55.624;37.304;2023-02-01T14:31:40;15.27;;;8.18;;
74912;SDS011;63878;55.624;37.304;2023-02-01T14:42:01;16.05;;;7.47;;
74912;SDS011;63878;55.624;37.304;2023-02-01T14:52:06;18.13;;;8.35;;
74912;SDS011;63878;55.624;37.304;2023-02-01T15:02:31;13.75;;;6.18;;
74912;SDS011;63878;55.624;37.304;2023-02-01T15:12:35;17.67;;;7.85;;
74912;SDS011;63878;55.624;37.304;2023-02-01T15:32:41;16.93;;;7.93;;
74912;SDS011;63878;55.624;37.304;2023-02-01T15:42:55;16.80;;;7.53;;
74912;SDS011;63878;55.624;37.304;2023-02-01T15:52:58;17.88;;;6.82;;
74912;SDS011;63878;55.624;37.304;2023-02-01T16:03:44;16.88;;;8.05;;
74912;SDS011;63878;55.624;37.304;2023-02-01T16:13:33;14.63;;;6.95;;
74912;SDS011;63878;55.624;37.304;2023-02-01T16:23:34;15.43;;;7.03;;
74912;SDS011;63878;55.624;37.304;2023-02-01T16:33:35;16.45;;;7.85;;
74912;SDS011;63878;55.624;37.304;2023-02-01T16:43:36;15.85;;;6.95;;
74912;SDS011;63878;55.624;37.304;2023-02-01T16:53:37;19.65;;;8.45;;
74912;SDS011;63878;55.624;37.304;2023-02-01T17:03:38;15.10;;;7.40;;
74912;SDS011;63878;55.624;37.304;2023-02-01T17:13:39;13.95;;;6.50;;
74912;SDS011;63878;55.624;37.304;2023-02-01T17:23:40;9.10;;;4.55;;
74912;SDS011;63878;55.624;37.304;2023-02-01T17:33:43;12.85;;;6.28;;
74912;SDS011;63878;55.624;37.304;2023-02-01T17:43:44;11.20;;;5.07;;
74912;SDS011;63878;55.624;37.304;2023-02-01T17:53:46;12.88;;;5.35;;
74912;SDS011;63878;55.624;37.304;2023-02-01T18:03:47;10.57;;;5.18;;
74912;SDS011;63878;55.624;37.304;2023-02-01T18:13:49;16.52;;;7.68;;
74912;SDS011;63878;55.624;37.304;2023-02-01T18:23:52;10.23;;;5.40;;
74912;SDS011;63878;55.624;37.304;2023-02-01T18:33:55;13.20;;;5.82;;
74912;SDS011;63878;55.624;37.304;2023-02-01T18:44:03;14.32;;;6.72;;
74912;SDS011;63878;55.624;37.304;2023-02-01T18:54:04;13.27;;;5.88;;
74912;SDS011;63878;55.624;37.304;2023-02-01T19:04:05;15.00;;;6.85;;
74912;SDS011;63878;55.624;37.304;2023-02-01T19:14:06;15.20;;;6.30;;
74912;SDS011;63878;55.624;37.304;2023-02-01T19:24:07;9.33;;;4.53;;
74912;SDS011;63878;55.624;37.304;2023-02-01T19:34:07;13.87;;;6.70;;
74912;SDS011;63878;55.624;37.304;2023-02-01T19:44:08;14.27;;;7.30;;
74912;SDS011;63878;55.624;37.304;2023-02-01T19:54:09;14.60;;;6.87;;
74912;SDS011;63878;55.624;37.304;2023-02-01T20:04:11;14.32;;;6.47;;
74912;SDS011;63878;55.624;37.304;2023-02-01T20:14:12;18.33;;;7.55;;
74912;SDS011;63878;55.624;37.304;2023-02-01T20:24:14;16.13;;;7.97;;
74912;SDS011;63878;55.624;37.304;2023-02-01T20:34:16;19.90;;;8.45;;
74912;SDS011;63878;55.624;37.304;2023-02-01T20:44:17;14.73;;;6.93;;
74912;SDS011;63878;55.624;37.304;2023-02-01T20:54:18;16.92;;;8.00;;
74912;SDS011;63878;55.624;37.304;2023-02-01T21:04:19;19.40;;;8.70;;
74912;SDS011;63878;55.624;37.304;2023-02-01T21:14:23;19.77;;;9.32;;
74912;SDS011;63878;55.624;37.304;2023-02-01T21:24:24;17.88;;;9.10;;
74912;SDS011;63878;55.624;37.304;2023-02-01T21:34:25;19.70;;;8.45;;
74912;SDS011;63878;55.624;37.304;2023-02-01T21:44:26;20.98;;;9.38;;
74912;SDS011;63878;55.624;37.304;2023-02-01T21:54:28;20.92;;;10.63;;
74912;SDS011;63878;55.624;37.304;2023-02-01T22:04:29;19.88;;;9.80;;
74912;SDS011;63878;55.624;37.304;2023-02-01T22:14:30;20.33;;;9.60;;
74912;SDS011;63878;55.624;37.304;2023-02-01T22:24:31;21.57;;;9.97;;
74912;SDS011;63878;55.624;37.304;2023-02-01T22:34:32;19.75;;;9.57;;
74912;SDS011;63878;55.624;37.304;2023-02-01T22:44:32;19.65;;;9.93;;
74912;SDS011;63878;55.624;37.304;2023-02-01T22:54:33;19.00;;;9.43;;
74912;SDS011;63878;55.624;37.304;2023-02-01T23:04:34;18.25;;;8.32;;
74912;SDS011;63878;55.624;37.304;2023-02-01T23:24:35;17.70;;;9.07;;
74912;SDS011;63878;55.624;37.304;2023-02-01T23:34:37;23.77;;;9.88;;
74912;SDS011;63878;55.624;37.304;2023-02-01T23:44:38;18.92;;;9.48;;
74912;SDS011;63878;55.624;37.304;2023-02-01T23:54:39;15.75;;;8.30;;
